CheckWX is a tool to help pilots better visualize weather data.  It is not intended as a substitute for an official pre-flight weather briefing.

21:39:07 UTC

VTPM TAF
Mae Sot Airport
Thailand
TAF VTPM 201700Z 2018/2118 27005KT 8000 FEW030

Mar-20@
18:00 UTC

Mar-20 @ 18:00 UTC

Mar-21@
18:00 UTC

Mar-21 @ 18:00 UTC

TAF VTPM 201700Z 2018/2118 27005KT 8000 FEW030
Wind
  • 270° at 5 KTS
Cloud Levels
  • Few at 3,000' AGL